Time;durP1;ratioP1;P1;durP2;ratioP2;P2;SDS_P1;SDS_P2;PMS_P1;PMS_P2;Temp;Humidity;BMP_temperature;BMP_pressure;BME280_temperature;BME280_humidity;BME280_pressure;Samples;Min_cycle;Max_cycle;Signal;HPM_P1;HPM_P2
2021/12/23 00:02:23;;;;;;;10.10;3.60;;;;;;;-16.80;57.73;99672.38;5073203;28;20021;-66
2021/12/23 00:04:49;;;;;;;11.13;3.38;;;;;;;-16.74;57.51;99667.41;5073150;28;20033;-67
2021/12/23 00:07:14;;;;;;;10.63;3.58;;;;;;;-16.69;57.32;99665.84;5072914;28;20054;-68
2021/12/23 00:12:18;;;;;;;11.82;3.65;;;;;;;-16.86;57.24;99623.56;5073146;28;20035;-66
2021/12/23 00:14:45;;;;;;;11.98;3.50;;;;;;;-16.62;57.31;99660.06;5073033;28;20050;-66
2021/12/23 00:17:26;;;;;;;9.63;2.88;;;;;;;-16.58;57.41;99657.59;5072130;28;20037;-66
2021/12/23 00:25:18;;;;;;;9.30;3.00;;;;;;;-16.48;57.15;99644.16;5072574;28;20035;-69
2021/12/23 00:27:44;;;;;;;10.40;3.50;;;;;;;-16.47;56.78;99640.78;5072982;28;20032;-66
2021/12/23 00:30:10;;;;;;;13.70;3.83;;;;;;;-16.42;56.91;99644.31;5073220;28;20024;-65
2021/12/23 00:32:36;;;;;;;10.27;3.40;;;;;;;-16.44;57.35;99628.03;5072783;28;20556;-67
2021/12/23 00:35:04;;;;;;;11.82;3.45;;;;;;;-16.37;57.06;99631.63;5072454;28;20032;-67
2021/12/23 00:37:37;;;;;;;8.50;3.28;;;;;;;-16.31;57.17;99632.66;5072587;28;20049;-66
2021/12/23 00:40:04;;;;;;;8.80;3.28;;;;;;;-16.26;57.22;99640.47;5072914;28;20119;-67
2021/12/23 00:42:31;;;;;;;9.02;3.35;;;;;;;-16.25;56.99;99631.06;5072338;28;20842;-67
2021/12/23 00:44:57;;;;;;;8.07;2.83;;;;;;;-16.23;57.27;99631.97;5071914;28;20128;-68
2021/12/23 00:47:23;;;;;;;6.15;2.85;;;;;;;-16.22;56.92;99628.56;5072094;28;20541;-65
2021/12/23 00:49:48;;;;;;;6.85;2.80;;;;;;;-16.24;56.86;99625.09;5072851;28;20051;-68
2021/12/23 00:52:17;;;;;;;11.32;3.53;;;;;;;-16.19;57.17;99616.69;5071769;28;20035;-68
2021/12/23 00:54:43;;;;;;;7.32;3.03;;;;;;;-16.16;57.18;99631.28;5072233;28;20028;-64
2021/12/23 00:57:08;;;;;;;8.50;2.75;;;;;;;-16.14;57.36;99633.88;5072363;28;20036;-67
2021/12/23 00:59:35;;;;;;;13.15;3.88;;;;;;;-16.12;57.47;99634.78;5072061;28;20040;-66
2021/12/23 01:02:03;;;;;;;6.13;2.70;;;;;;;-16.21;57.28;99612.34;5072047;28;20143;-66
2021/12/23 01:04:29;;;;;;;5.95;2.67;;;;;;;-16.05;57.41;99628.97;5071799;28;20370;-66
2021/12/23 01:06:54;;;;;;;8.35;2.58;;;;;;;-16.04;57.13;99631.56;5071990;28;20031;-66
2021/12/23 01:09:21;;;;;;;12.75;3.40;;;;;;;-15.97;57.69;99632.59;5071049;28;20097;-66
2021/12/23 01:11:49;;;;;;;12.18;3.60;;;;;;;-16.11;57.35;99601.50;5070203;28;20021;-66
2021/12/23 01:19:26;;;;;;;7.57;2.63;;;;;;;-15.80;57.74;99627.81;5071747;28;20036;-66
2021/12/23 01:21:52;;;;;;;5.35;2.50;;;;;;;-15.78;57.65;99617.59;5071960;28;20021;-64
2021/12/23 01:24:18;;;;;;;6.78;2.60;;;;;;;-15.76;57.53;99621.91;5071096;28;20036;-65
2021/12/23 01:26:44;;;;;;;9.60;2.53;;;;;;;-15.70;57.69;99625.44;5071519;28;20021;-66
2021/12/23 01:29:10;;;;;;;10.38;3.10;;;;;;;-15.64;57.32;99620.47;5072019;28;20029;-68
2021/12/23 01:31:39;;;;;;;9.50;3.20;;;;;;;-15.60;57.61;99614.56;5071965;28;20035;-66
2021/12/23 01:34:06;;;;;;;7.53;3.00;;;;;;;-15.55;57.26;99612.06;5071262;28;20075;-67
2021/12/23 01:36:32;;;;;;;7.85;3.03;;;;;;;-15.50;57.65;99618.19;5071543;28;20097;-66
2021/12/23 01:38:58;;;;;;;6.22;2.92;;;;;;;-15.46;57.32;99620.84;5071715;28;20041;-66
2021/12/23 01:41:26;;;;;;;6.80;2.80;;;;;;;-15.40;57.68;99617.53;5071242;28;20032;-66
2021/12/23 01:43:52;;;;;;;5.55;2.47;;;;;;;-15.37;57.60;99612.47;5071193;28;20110;-66
2021/12/23 01:46:19;;;;;;;8.75;2.90;;;;;;;-15.33;57.34;99615.97;5071234;28;20541;-65
2021/12/23 01:48:44;;;;;;;7.32;2.83;;;;;;;-15.44;57.86;99592.66;5071217;28;20346;-65
2021/12/23 01:51:10;;;;;;;7.32;2.80;;;;;;;-15.24;57.65;99610.16;5071388;28;20037;-65
2021/12/23 01:53:36;;;;;;;6.90;3.03;;;;;;;-15.16;57.88;99614.63;5071405;28;20020;-68
2021/12/23 01:56:02;;;;;;;7.47;2.63;;;;;;;-15.10;57.93;99607.88;5071522;28;20032;-67
2021/12/23 01:58:28;;;;;;;7.03;2.63;;;;;;;-15.12;57.54;99612.13;5070794;28;20029;-65
2021/12/23 02:00:54;;;;;;;8.75;2.65;;;;;;;-15.11;57.86;99614.69;5070865;28;20086;-68
2021/12/23 02:03:20;;;;;;;6.18;2.67;;;;;;;-15.06;57.70;99615.69;5069742;28;20455;-67
2021/12/23 02:05:46;;;;;;;8.68;2.97;;;;;;;-15.03;57.67;99614.84;5071192;28;20060;-67
2021/12/23 02:08:12;;;;;;;7.05;2.78;;;;;;;-14.95;57.56;99607.31;5071450;28;20130;-66
2021/12/23 02:10:39;;;;;;;5.03;2.03;;;;;;;-14.93;57.99;99609.06;5070836;28;20036;-67
2021/12/23 02:13:04;;;;;;;6.82;2.75;;;;;;;-14.88;57.84;99599.75;5070753;28;20028;-66
2021/12/23 02:15:30;;;;;;;7.15;2.63;;;;;;;-14.85;57.86;99598.91;5054381;28;20903;-67
2021/12/23 02:17:56;;;;;;;6.00;2.70;;;;;;;-14.74;57.97;99607.69;5070903;28;20048;-66
2021/12/23 02:20:24;;;;;;;6.20;2.38;;;;;;;-14.92;57.85;99564.56;5070411;28;20623;-66
2021/12/23 02:22:51;;;;;;;4.78;1.85;;;;;;;-14.69;57.69;99599.16;5070698;28;20033;-67
2021/12/23 02:25:17;;;;;;;5.28;2.22;;;;;;;-14.64;57.70;99602.69;5070883;28;20393;-67
2021/12/23 02:27:44;;;;;;;7.72;2.55;;;;;;;-14.73;57.95;99583.72;5070899;28;20098;-66
2021/12/23 02:30:16;;;;;;;9.02;3.03;;;;;;;-14.49;57.86;99596.94;5070804;28;20021;-67
2021/12/23 02:32:41;;;;;;;8.98;2.70;;;;;;;-14.54;57.94;99602.03;5070542;28;20045;-66
2021/12/23 02:35:11;;;;;;;6.47;2.10;;;;;;;-14.39;57.37;99608.25;5071214;28;20029;-65
2021/12/23 02:37:38;;;;;;;9.07;2.25;;;;;;;-14.44;57.53;99601.31;5071088;28;20021;-67
2021/12/23 02:40:04;;;;;;;9.57;2.25;;;;;;;-14.44;57.87;99595.34;5070223;28;20116;-67
2021/12/23 02:42:30;;;;;;;8.15;2.88;;;;;;;-14.40;57.89;99589.41;5070377;28;20256;-68
2021/12/23 02:44:55;;;;;;;8.65;2.63;;;;;;;-14.39;57.70;99577.38;5070760;28;20481;-66
2021/12/23 02:47:21;;;;;;;6.03;2.55;;;;;;;-14.25;57.75;99596.50;5070249;28;20044;-66
2021/12/23 02:49:47;;;;;;;8.95;2.97;;;;;;;-14.20;58.14;99594.00;5070239;28;20032;-66
2021/12/23 02:52:12;;;;;;;5.80;2.50;;;;;;;-14.16;58.02;99601.78;5070186;28;20031;-65
2021/12/23 02:54:38;;;;;;;5.28;2.55;;;;;;;-14.24;57.77;99575.06;5070299;28;20382;-67
2021/12/23 02:57:04;;;;;;;5.32;2.28;;;;;;;-14.09;57.62;99589.88;5070375;28;20029;-67
2021/12/23 02:59:29;;;;;;;9.93;3.10;;;;;;;-14.01;58.21;99598.56;5068870;28;20162;-67
2021/12/23 03:01:55;;;;;;;5.68;2.40;;;;;;;-13.97;58.17;99593.50;5070186;28;20032;-66
2021/12/23 03:04:21;;;;;;;4.78;2.55;;;;;;;-13.85;58.13;99609.09;5068974;28;20343;-67
2021/12/23 03:06:46;;;;;;;7.88;2.83;;;;;;;-13.80;58.12;99598.88;5069969;28;20024;-65
2021/12/23 03:09:12;;;;;;;13.52;3.00;;;;;;;-13.73;57.85;99599.00;5068815;28;20032;-66
2021/12/23 03:11:40;;;;;;;8.13;2.60;;;;;;;-13.67;58.14;99589.63;5070527;28;20029;-67
2021/12/23 03:14:06;;;;;;;6.90;2.63;;;;;;;-13.63;58.27;99592.25;5069725;28;20025;-67
2021/12/23 03:16:35;;;;;;;6.63;2.85;;;;;;;-13.58;57.87;99582.00;5068553;28;20043;-67
2021/12/23 03:19:02;;;;;;;7.05;2.53;;;;;;;-13.49;57.86;99594.16;5069921;28;20040;-67
2021/12/23 03:21:27;;;;;;;8.02;2.53;;;;;;;-13.41;58.11;99588.22;5069636;28;20028;-67
2021/12/23 03:23:53;;;;;;;6.70;2.63;;;;;;;-13.34;58.34;99581.44;5070193;28;20481;-69
2021/12/23 03:26:19;;;;;;;12.27;2.63;;;;;;;-13.28;57.90;99580.63;5069976;28;20036;-68
2021/12/23 03:28:45;;;;;;;7.00;2.78;;;;;;;-13.22;57.92;99570.44;5069967;28;20021;-68
2021/12/23 03:31:11;;;;;;;5.60;2.35;;;;;;;-13.16;58.25;99577.34;5070112;28;20112;-62
2021/12/23 03:33:36;;;;;;;10.00;2.42;;;;;;;-13.13;57.91;99577.41;5070481;28;20028;-68
2021/12/23 03:36:03;;;;;;;6.25;2.50;;;;;;;-13.12;57.83;99572.25;5069680;28;20083;-68
2021/12/23 03:38:28;;;;;;;5.95;2.40;;;;;;;-13.16;58.07;99554.16;5069709;28;20048;-68
2021/12/23 03:40:55;;;;;;;4.50;2.40;;;;;;;-13.07;57.98;99555.97;5070075;28;20024;-67
2021/12/23 03:43:20;;;;;;;8.40;2.15;;;;;;;-13.02;58.23;99559.44;5070019;28;20367;-67
2021/12/23 03:45:48;;;;;;;6.13;2.15;;;;;;;-12.99;57.97;99562.09;5070089;28;20082;-66
2021/12/23 03:48:15;;;;;;;6.07;2.40;;;;;;;-13.00;58.54;99555.22;5069565;28;20037;-67
2021/12/23 03:50:43;;;;;;;6.15;2.55;;;;;;;-12.98;58.57;99562.09;5070166;28;20025;-64
2021/12/23 03:53:08;;;;;;;6.05;2.78;;;;;;;-12.99;58.29;99559.50;5073665;28;20031;-67
2021/12/23 03:55:34;;;;;;;5.72;2.50;;;;;;;-13.16;58.55;99524.09;5073266;28;20036;-66
2021/12/23 03:57:59;;;;;;;9.32;3.40;;;;;;;-12.93;58.56;99558.69;5073117;28;20029;-67
2021/12/23 04:00:25;;;;;;;6.28;2.42;;;;;;;-12.92;58.65;99558.72;5073522;28;20031;-66
2021/12/23 04:02:52;;;;;;;6.78;2.50;;;;;;;-12.87;58.41;99559.63;5073410;28;20081;-69
2021/12/23 04:05:19;;;;;;;13.30;3.47;;;;;;;-12.82;58.95;99562.25;5073009;28;20446;-68
2021/12/23 04:07:45;;;;;;;6.97;2.90;;;;;;;-12.97;59.05;99524.31;5072486;28;20025;-67
2021/12/23 04:10:15;;;;;;;7.10;3.03;;;;;;;-12.86;58.69;99524.41;5072275;28;20038;-64
2021/12/23 04:12:42;;;;;;;11.48;3.22;;;;;;;-12.84;58.96;99522.72;5073077;28;20041;-65
2021/12/23 04:15:08;;;;;;;9.20;3.15;;;;;;;-12.57;58.89;99552.16;5073091;28;20032;-67
2021/12/23 04:17:34;;;;;;;7.93;3.42;;;;;;;-12.52;58.89;99559.97;5077042;28;20059;-68
2021/12/23 04:20:13;;;;;;;6.25;3.28;;;;;;;-12.46;58.86;99547.09;5073912;28;20466;-66
2021/12/23 04:22:40;;;;;;;6.32;3.00;;;;;;;-12.40;59.25;99549.72;5073355;28;20089;-66
2021/12/23 04:25:05;;;;;;;5.85;2.70;;;;;;;-12.37;59.25;99542.00;5072626;28;20043;-66
2021/12/23 04:27:31;;;;;;;7.78;3.08;;;;;;;-12.27;58.60;99553.25;5072553;28;20029;-66
2021/12/23 04:29:57;;;;;;;5.55;2.85;;;;;;;-12.23;58.91;99538.69;5072917;28;20103;-67
2021/12/23 04:32:23;;;;;;;6.22;2.85;;;;;;;-12.17;58.75;99549.91;5072638;28;20032;-67
2021/12/23 04:34:48;;;;;;;6.85;3.40;;;;;;;-12.12;58.91;99549.94;5071207;28;20135;-67
2021/12/23 04:37:14;;;;;;;6.00;2.97;;;;;;;-12.06;58.67;99549.97;5072433;28;20035;-67
2021/12/23 04:39:40;;;;;;;7.00;3.10;;;;;;;-12.05;58.77;99543.09;5073283;28;20028;-63
2021/12/23 04:42:06;;;;;;;7.25;2.70;;;;;;;-12.01;58.79;99550.88;5072651;28;20043;-64
2021/12/23 04:44:31;;;;;;;8.20;3.28;;;;;;;-11.95;58.73;99552.59;5072146;28;20417;-68
2021/12/23 04:46:57;;;;;;;9.60;3.45;;;;;;;-11.96;58.61;99548.28;5072343;28;20484;-67
2021/12/23 04:49:23;;;;;;;8.10;3.17;;;;;;;-11.91;58.96;99549.19;5072081;28;20086;-69
2021/12/23 04:51:49;;;;;;;10.10;3.28;;;;;;;-11.85;58.84;99558.69;5070764;28;20203;-67
2021/12/23 04:54:14;;;;;;;7.18;3.13;;;;;;;-11.79;58.70;99565.59;5072162;28;20025;-68
2021/12/23 04:56:40;;;;;;;8.73;3.90;;;;;;;-11.79;58.58;99563.91;5071344;28;20199;-67
2021/12/23 04:59:06;;;;;;;10.13;3.95;;;;;;;-11.74;58.88;99571.66;5072349;28;20183;-68
2021/12/23 05:01:32;;;;;;;9.40;3.53;;;;;;;-11.78;58.58;99570.78;5071865;28;20021;-66
2021/12/23 05:03:59;;;;;;;8.90;3.50;;;;;;;-11.80;59.21;99575.09;5071646;28;20067;-66
2021/12/23 05:06:25;;;;;;;10.82;3.40;;;;;;;-11.83;58.75;99567.28;5072038;28;20031;-68
2021/12/23 05:08:52;;;;;;;7.40;3.67;;;;;;;-11.78;59.11;99581.13;5071930;28;20081;-66
2021/12/23 05:11:17;;;;;;;8.35;3.20;;;;;;;-11.90;59.19;99578.44;5070024;28;20077;-66
2021/12/23 05:13:47;;;;;;;9.00;3.28;;;;;;;-11.93;59.43;99583.59;5071976;28;20036;-67
2021/12/23 05:16:16;;;;;;;8.65;3.00;;;;;;;-11.83;58.95;99583.66;5071544;28;20073;-67
2021/12/23 05:18:42;;;;;;;6.75;2.88;;;;;;;-11.88;59.18;99576.72;5071602;28;20032;-65
2021/12/23 05:21:07;;;;;;;9.32;3.55;;;;;;;-11.99;59.42;99580.13;5072364;28;20080;-66
2021/12/23 05:23:33;;;;;;;8.00;3.30;;;;;;;-12.04;59.59;99584.44;5071481;28;20028;-67
2021/12/23 05:25:58;;;;;;;7.38;3.30;;;;;;;-12.05;60.11;99587.84;5071339;28;20474;-65
2021/12/23 05:28:24;;;;;;;5.55;2.17;;;;;;;-11.95;59.78;99598.22;5071542;28;20438;-64
2021/12/23 05:30:50;;;;;;;12.07;3.58;;;;;;;-11.93;59.57;99586.19;5071277;28;20493;-66
2021/12/23 05:33:15;;;;;;;7.30;3.72;;;;;;;-11.94;60.12;99584.44;5070655;28;20028;-66
2021/12/23 05:35:41;;;;;;;9.35;3.88;;;;;;;-11.86;59.98;99587.94;5072223;28;20031;-64
2021/12/23 05:38:07;;;;;;;6.88;2.95;;;;;;;-11.91;59.41;99556.94;5070732;28;20036;-67
2021/12/23 05:40:34;;;;;;;9.93;3.65;;;;;;;-11.77;60.05;99582.84;5071285;28;20040;-66
2021/12/23 05:43:00;;;;;;;9.98;3.53;;;;;;;-11.70;60.31;99588.88;5071263;28;20107;-67
2021/12/23 05:45:25;;;;;;;7.75;3.78;;;;;;;-11.81;59.97;99560.44;5071305;28;20163;-67
2021/12/23 05:47:52;;;;;;;10.02;4.60;;;;;;;-11.57;60.02;99587.28;5071224;28;20028;-67
2021/12/23 05:50:20;;;;;;;8.63;4.05;;;;;;;-11.50;60.24;99583.84;5070886;28;20028;-66
2021/12/23 05:52:45;;;;;;;7.65;3.80;;;;;;;-11.42;59.82;99589.91;5070576;28;20111;-65
2021/12/23 05:55:13;;;;;;;8.93;3.65;;;;;;;-11.51;60.07;99563.16;5071435;28;20143;-65
2021/12/23 05:57:39;;;;;;;9.50;3.90;;;;;;;-11.29;59.86;99590.00;5071556;28;20024;-67
2021/12/23 06:00:12;;;;;;;9.02;3.60;;;;;;;-11.40;60.24;99552.03;5072180;28;20221;-67
2021/12/23 06:02:38;;;;;;;8.77;3.38;;;;;;;-11.31;60.02;99553.78;5075744;28;20452;-65
2021/12/23 06:05:05;;;;;;;10.63;3.70;;;;;;;-11.05;59.77;99590.94;5080348;28;20016;-68
2021/12/23 06:07:31;;;;;;;7.93;3.80;;;;;;;-11.13;59.44;99565.91;5077536;28;20931;-67
2021/12/23 06:09:56;;;;;;;7.70;3.90;;;;;;;-10.91;59.24;99591.84;5080004;28;20028;-67
2021/12/23 06:12:22;;;;;;;9.40;4.80;;;;;;;-10.90;59.89;99598.72;5078289;28;20032;-64
2021/12/23 06:14:47;;;;;;;9.57;3.92;;;;;;;-10.83;59.75;99591.84;5076055;28;20413;-65
2021/12/23 06:17:13;;;;;;;8.50;3.60;;;;;;;-10.88;59.67;99575.47;5070974;28;20035;-66
2021/12/23 06:19:38;;;;;;;8.65;3.50;;;;;;;-10.69;59.60;99591.88;5070913;28;20021;-63
2021/12/23 06:22:04;;;;;;;6.28;3.58;;;;;;;-10.67;59.81;99605.69;5071272;28;20033;-75
2021/12/23 06:24:31;;;;;;;8.98;3.75;;;;;;;-10.58;59.52;99604.84;5076974;28;20039;-67
2021/12/23 06:26:56;;;;;;;10.82;4.32;;;;;;;-10.55;59.02;99600.56;5081051;28;20028;-70
2021/12/23 06:29:22;;;;;;;12.77;4.32;;;;;;;-10.54;58.94;99591.94;5070436;28;20036;-69
2021/12/23 06:31:47;;;;;;;12.82;4.97;;;;;;;-10.47;59.27;99602.28;5070530;28;20020;-69
2021/12/23 06:34:13;;;;;;;12.57;5.13;;;;;;;-10.54;59.61;99594.50;5070574;28;20056;-67
2021/12/23 06:36:39;;;;;;;10.82;4.53;;;;;;;-10.54;59.86;99591.94;5070945;28;20537;-70
2021/12/23 06:39:06;;;;;;;11.07;4.45;;;;;;;-10.41;59.53;99600.56;5070206;28;20038;-69
2021/12/23 06:41:31;;;;;;;9.88;4.03;;;;;;;-10.35;59.33;99602.28;5070405;28;20063;-70
2021/12/23 06:43:58;;;;;;;12.10;3.95;;;;;;;-10.29;59.17;99593.63;5070017;28;20049;-70
2021/12/23 06:46:23;;;;;;;9.77;4.30;;;;;;;-10.25;58.95;99593.63;5070384;28;20060;-71
2021/12/23 06:48:49;;;;;;;8.57;3.72;;;;;;;-10.26;59.19;99597.09;5070335;28;20397;-70
2021/12/23 06:51:14;;;;;;;8.75;2.95;;;;;;;-10.11;59.00;99590.22;5070538;28;20032;-71
2021/12/23 06:53:40;;;;;;;10.80;4.15;;;;;;;-10.09;59.12;99583.28;5071056;28;20063;-69
2021/12/23 06:56:06;;;;;;;10.10;4.82;;;;;;;-10.12;59.32;99580.72;5070503;28;20036;-70
2021/12/23 06:58:32;;;;;;;9.48;3.97;;;;;;;-10.05;59.00;99590.19;5070491;28;20036;-70
2021/12/23 07:00:59;;;;;;;10.63;4.22;;;;;;;-9.98;58.99;99588.47;5070953;28;20424;-71
2021/12/23 07:03:33;;;;;;;8.95;3.72;;;;;;;-10.09;58.80;99554.81;5070032;28;20424;-70
2021/12/23 07:06:05;;;;;;;9.23;4.07;;;;;;;-9.73;58.42;99583.25;5070203;28;20104;-68
2021/12/23 07:08:31;;;;;;;9.10;4.53;;;;;;;-9.73;58.29;99576.34;5070162;28;20032;-70
2021/12/23 07:10:56;;;;;;;10.45;4.18;;;;;;;-9.56;58.21;99583.22;5070180;28;20040;-71
2021/12/23 07:13:23;;;;;;;8.90;3.17;;;;;;;-9.62;58.49;99554.72;5070132;28;20162;-70
2021/12/23 07:15:49;;;;;;;12.50;4.22;;;;;;;-9.36;57.79;99575.38;5070885;28;20155;-70
2021/12/23 07:18:14;;;;;;;8.88;4.18;;;;;;;-9.31;58.01;99565.00;5070579;28;20036;-69
2021/12/23 07:20:40;;;;;;;10.18;4.55;;;;;;;-9.14;57.72;99563.19;5070756;28;20032;-69
2021/12/23 07:23:06;;;;;;;11.45;4.53;;;;;;;-9.06;57.58;99562.28;5070693;28;20052;-68
2021/12/23 07:25:31;;;;;;;10.45;4.55;;;;;;;-8.84;57.11;99570.81;5071929;28;20078;-71
2021/12/23 07:27:57;;;;;;;13.15;5.25;;;;;;;-8.67;56.61;99566.41;5074350;28;20028;-70
2021/12/23 07:30:23;;;;;;;8.20;4.15;;;;;;;-8.60;55.99;99561.16;5074136;28;20067;-70
2021/12/23 07:32:50;;;;;;;10.77;4.43;;;;;;;-8.45;56.46;99565.34;5074367;28;20037;-69
2021/12/23 07:35:18;;;;;;;8.88;4.53;;;;;;;-8.36;55.70;99576.53;5074323;28;20099;-71
2021/12/23 07:37:44;;;;;;;9.50;4.30;;;;;;;-8.41;55.66;99567.06;5073931;28;20028;-71
2021/12/23 07:40:16;;;;;;;12.13;4.20;;;;;;;-8.37;56.08;99582.59;5074229;28;20466;-69
2021/12/23 07:42:53;;;;;;;11.10;4.32;;;;;;;-8.36;55.83;99578.28;5074319;28;20040;-67
2021/12/23 07:45:26;;;;;;;8.18;4.10;;;;;;;-8.32;55.95;99572.19;5073434;28;20068;-69
2021/12/23 07:47:52;;;;;;;10.07;3.90;;;;;;;-8.31;55.70;99581.69;5073971;28;20032;-69
2021/12/23 07:50:17;;;;;;;9.90;3.90;;;;;;;-8.31;55.88;99578.25;5074008;28;20386;-70
2021/12/23 07:52:43;;;;;;;13.50;4.40;;;;;;;-8.39;55.83;99558.38;5073792;28;20067;-69
2021/12/23 07:55:09;;;;;;;8.25;4.03;;;;;;;-8.39;55.65;99553.19;5073746;28;20553;-71
2021/12/23 07:57:35;;;;;;;8.82;4.53;;;;;;;-8.31;55.81;99568.72;5073285;28;20028;-72
2021/12/23 08:00:01;;;;;;;9.27;4.63;;;;;;;-8.43;56.02;99574.00;5074369;28;20374;-72
2021/12/23 08:02:26;;;;;;;9.38;4.07;;;;;;;-8.42;56.03;99560.16;5066892;28;20475;-68
2021/12/23 08:04:52;;;;;;;9.98;4.55;;;;;;;-8.37;56.03;99563.56;5068972;28;20054;-71
2021/12/23 08:07:18;;;;;;;12.75;4.38;;;;;;;-8.34;56.41;99567.84;5070463;28;20089;-70
2021/12/23 08:09:43;;;;;;;9.38;4.50;;;;;;;-8.22;55.81;99565.19;5071069;28;20089;-70
2021/12/23 08:12:09;;;;;;;8.23;4.20;;;;;;;-8.21;55.25;99544.38;5071415;28;20094;-66
2021/12/23 08:14:35;;;;;;;11.88;4.78;;;;;;;-7.92;55.34;99568.38;5070610;28;20508;-69
2021/12/23 08:17:00;;;;;;;9.07;4.35;;;;;;;-7.79;54.79;99561.31;5071091;28;20024;-70
2021/12/23 08:19:26;;;;;;;11.10;4.65;;;;;;;-7.77;54.38;99559.56;5071332;28;20028;-69
2021/12/23 08:21:51;;;;;;;9.05;3.72;;;;;;;-7.89;54.01;99529.38;5072975;28;20020;-71
2021/12/23 08:24:17;;;;;;;8.32;3.67;;;;;;;-7.70;54.05;99566.44;5073742;28;20032;-70
2021/12/23 08:26:50;;;;;;;9.10;4.68;;;;;;;-7.76;54.31;99563.91;5071935;28;20391;-71
2021/12/23 08:29:18;;;;;;;8.15;4.10;;;;;;;-7.84;54.18;99558.75;5072921;28;20458;-71
2021/12/23 08:31:44;;;;;;;7.65;3.95;;;;;;;-7.83;54.04;99555.31;5072812;28;20041;-70
2021/12/23 08:34:09;;;;;;;10.52;4.03;;;;;;;-7.83;53.90;99554.44;5054271;28;20033;-70
2021/12/23 08:36:36;;;;;;;9.93;4.82;;;;;;;-7.87;54.37;99548.41;5071522;28;20058;-71
2021/12/23 08:39:02;;;;;;;8.50;4.53;;;;;;;-7.86;54.09;99564.88;5071759;28;20055;-69
2021/12/23 08:41:28;;;;;;;9.05;4.28;;;;;;;-7.90;54.15;99563.19;5072083;28;20438;-69
2021/12/23 08:43:53;;;;;;;9.80;4.68;;;;;;;-7.90;54.42;99558.81;5070753;28;20120;-74
2021/12/23 08:46:19;;;;;;;12.98;5.13;;;;;;;-7.75;53.75;99563.00;5071874;28;20028;-71
2021/12/23 08:48:45;;;;;;;8.02;3.90;;;;;;;-7.68;53.95;99564.69;5071971;28;20045;-69
2021/12/23 08:51:10;;;;;;;8.90;4.47;;;;;;;-7.76;54.33;99560.44;5072111;28;20044;-71
2021/12/23 08:53:36;;;;;;;10.52;4.28;;;;;;;-7.78;54.30;99563.03;5072113;28;20081;-70
2021/12/23 08:56:02;;;;;;;8.48;4.32;;;;;;;-7.75;54.15;99564.78;5072193;28;20078;-71
2021/12/23 08:58:27;;;;;;;8.27;3.95;;;;;;;-7.72;54.47;99562.13;5071163;28;20079;-70
2021/12/23 09:00:52;;;;;;;8.45;4.30;;;;;;;-7.74;54.01;99563.88;5071011;28;20037;-71
2021/12/23 09:03:18;;;;;;;12.55;4.20;;;;;;;-7.73;54.21;99560.41;5072034;28;20027;-71
2021/12/23 09:05:43;;;;;;;10.23;4.65;;;;;;;-7.73;54.00;99566.47;5071652;28;20111;-70
2021/12/23 09:08:09;;;;;;;8.20;4.00;;;;;;;-7.90;54.00;99542.41;5072011;28;20395;-72
2021/12/23 09:10:36;;;;;;;12.65;4.78;;;;;;;-7.74;53.54;99558.69;5071810;28;20032;-71
2021/12/23 09:13:02;;;;;;;11.40;4.65;;;;;;;-7.76;53.50;99558.69;5071302;28;20063;-70
2021/12/23 09:15:28;;;;;;;13.68;4.32;;;;;;;-7.81;53.66;99548.38;5071478;28;20020;-72
2021/12/23 09:17:53;;;;;;;14.75;3.75;;;;;;;-7.84;53.78;99545.78;5071624;28;20039;-70
2021/12/23 09:20:22;;;;;;;10.55;4.32;;;;;;;-7.90;53.85;99525.03;5071867;28;20039;-70
2021/12/23 09:22:48;;;;;;;8.63;4.78;;;;;;;-7.86;54.22;99529.34;5071468;28;20032;-71
2021/12/23 09:25:23;;;;;;;7.22;3.75;;;;;;;-7.77;54.39;99538.78;5071341;28;20495;-72
2021/12/23 09:28:04;;;;;;;7.53;4.15;;;;;;;-7.80;53.87;99529.28;5071677;28;20021;-71
2021/12/23 09:33:16;;;;;;;9.02;4.53;;;;;;;-7.96;54.35;99528.59;5070682;28;20401;-68
2021/12/23 09:35:42;;;;;;;9.13;4.28;;;;;;;-8.05;54.07;99528.66;5071561;28;20039;-68
2021/12/23 09:38:08;;;;;;;11.52;4.32;;;;;;;-8.08;54.56;99528.69;5071807;28;20502;-68
2021/12/23 09:40:35;;;;;;;9.80;4.05;;;;;;;-8.07;54.72;99530.41;5070608;28;20036;-69
2021/12/23 09:43:04;;;;;;;8.55;4.53;;;;;;;-8.12;54.33;99534.78;5070613;28;20028;-68
2021/12/23 09:45:33;;;;;;;8.38;4.30;;;;;;;-8.14;54.74;99529.59;5071108;28;20041;-68
2021/12/23 09:48:02;;;;;;;9.63;4.30;;;;;;;-8.12;54.87;99527.00;5071305;28;20078;-68
2021/12/23 09:50:31;;;;;;;12.88;4.68;;;;;;;-8.04;54.59;99524.34;5069633;28;20033;-70
2021/12/23 09:53:00;;;;;;;9.77;3.83;;;;;;;-7.91;54.58;99525.09;5052428;28;20036;-71
2021/12/23 09:55:27;;;;;;;8.98;4.20;;;;;;;-7.81;54.27;99524.09;5069818;28;20377;-69
2021/12/23 09:57:55;;;;;;;9.40;3.70;;;;;;;-7.63;53.72;99525.63;5070579;28;20531;-67
2021/12/23 10:00:30;;;;;;;10.68;3.95;;;;;;;-7.53;53.32;99522.06;5070217;28;20470;-68
2021/12/23 10:02:57;;;;;;;8.30;3.95;;;;;;;-7.42;53.03;99521.06;5070630;28;20059;-66
2021/12/23 10:05:27;;;;;;;6.75;3.67;;;;;;;-7.36;53.17;99523.59;5070671;28;20047;-67
2021/12/23 10:08:01;;;;;;;8.23;4.15;;;;;;;-7.31;53.30;99513.13;5069618;28;20037;-66
2021/12/23 10:13:19;;;;;;;9.00;4.07;;;;;;;-7.33;53.46;99517.50;5070241;28;20504;-66
2021/12/23 10:38:10;;;;;;;9.15;3.97;;;;;;;-7.35;53.38;99471.56;5058725;28;20150;-67
2021/12/23 10:40:38;;;;;;;7.90;4.25;;;;;;;-7.22;53.47;99500.03;5069860;28;20033;-68
2021/12/23 10:43:04;;;;;;;7.72;3.45;;;;;;;-7.22;53.39;99502.63;5069923;28;20051;-68
2021/12/23 10:45:39;;;;;;;7.95;3.90;;;;;;;-7.21;53.31;99496.53;5069355;28;20036;-68
2021/12/23 10:48:11;;;;;;;6.55;3.28;;;;;;;-7.15;53.27;99500.78;5069348;28;20469;-69
2021/12/23 10:50:50;;;;;;;7.78;3.92;;;;;;;-7.37;53.78;99498.44;5069942;28;20037;-70
2021/12/23 10:54:20;;;;;;;9.45;3.47;;;;;;;-7.51;54.04;99488.22;5069669;28;20036;-67
2021/12/23 10:59:20;;;;;;;7.53;3.85;;;;;;;-7.46;54.16;99482.97;5068717;28;20378;-67
2021/12/23 11:02:21;;;;;;;10.10;3.33;;;;;;;-7.49;54.35;99486.47;5063792;28;20031;-70
2021/12/23 11:05:14;;;;;;;9.55;3.42;;;;;;;-7.50;54.45;99482.13;5068380;28;20033;-67
2021/12/23 11:08:31;;;;;;;3.90;2.22;;;;;;;-7.81;54.42;99451.31;5066344;28;20020;-68
2021/12/23 11:27:49;;;;;;;8.38;3.15;;;;;;;-7.56;54.62;99474.44;5079326;28;20039;-66
2021/12/23 11:43:57;;;;;;;5.25;2.85;;;;;;;-7.68;54.53;99462.44;5073522;28;20044;-68
2021/12/23 11:46:40;;;;;;;6.60;3.05;;;;;;;-7.69;54.89;99466.78;5073243;28;20036;-69
2021/12/23 11:49:09;;;;;;;4.90;2.47;;;;;;;-7.70;54.90;99466.78;5072899;28;20071;-68
2021/12/23 11:54:12;;;;;;;5.82;2.67;;;;;;;-7.83;54.63;99466.94;5073460;28;20363;-68
2021/12/23 11:56:50;;;;;;;6.32;3.05;;;;;;;-7.89;54.91;99468.75;5072902;28;20029;-68
2021/12/23 11:59:17;;;;;;;8.00;3.00;;;;;;;-7.96;55.15;99470.56;5056855;28;20047;-66
2021/12/23 12:01:46;;;;;;;5.47;2.60;;;;;;;-8.10;55.33;99450.75;5073859;28;20051;-69
2021/12/23 12:04:32;;;;;;;6.63;2.90;;;;;;;-8.07;55.22;99471.53;5073613;28;20028;-68
2021/12/23 12:06:59;;;;;;;5.18;2.42;;;;;;;-8.25;55.39;99464.75;5072494;28;20436;-68
2021/12/23 12:09:33;;;;;;;6.20;3.03;;;;;;;-8.29;55.33;99472.63;5073260;28;20020;-69
2021/12/23 12:11:58;;;;;;;7.43;2.90;;;;;;;-8.37;55.92;99472.69;5071865;28;20046;-68
2021/12/23 12:14:30;;;;;;;7.35;2.75;;;;;;;-8.42;55.85;99469.28;5072800;28;20032;-68
2021/12/23 12:16:55;;;;;;;8.75;2.97;;;;;;;-8.51;56.22;99465.91;5072536;28;20035;-68
2021/12/23 12:19:57;;;;;;;6.43;3.55;;;;;;;-8.46;56.53;99470.16;5071411;28;20024;-68
2021/12/23 12:22:47;;;;;;;8.05;2.95;;;;;;;-8.44;56.60;99463.22;5072821;28;20085;-68
2021/12/23 12:25:40;;;;;;;7.75;3.10;;;;;;;-8.49;56.44;99471.06;5056229;28;20021;-69
2021/12/23 12:28:06;;;;;;;8.05;3.42;;;;;;;-8.66;56.50;99473.84;5072037;28;20462;-68
2021/12/23 12:30:38;;;;;;;5.70;2.70;;;;;;;-8.71;56.79;99467.78;5072378;28;20033;-69
2021/12/23 12:33:24;;;;;;;5.68;3.13;;;;;;;-8.66;56.89;99461.69;5072039;28;20466;-69
2021/12/23 12:36:04;;;;;;;6.47;3.20;;;;;;;-8.76;56.88;99461.78;5067749;28;20060;-68
2021/12/23 12:38:37;;;;;;;8.93;2.85;;;;;;;-8.87;56.97;99451.47;5072413;28;20145;-67
2021/12/23 12:41:12;;;;;;;5.13;2.63;;;;;;;-8.85;57.42;99467.91;5072349;28;20040;-68
2021/12/23 12:43:50;;;;;;;6.30;3.45;;;;;;;-8.92;57.05;99453.25;5072283;28;20123;-69
2021/12/23 12:47:01;;;;;;;8.43;3.28;;;;;;;-8.91;57.24;99455.84;5072452;28;20438;-67
2021/12/23 12:49:38;;;;;;;8.23;3.35;;;;;;;-9.03;57.42;99443.81;5057443;28;20020;-68